Huvudsida
METAR-TAF:

METAR-TAF

Flygplatser :

Lagos, Nigeria

latitud: 06-35N, longitud: 003-20E, höjd: 40 m

Aktuellt väderrapport

Denna rapport gjordes för 31 minuter sedan, klockan 13:00 UTC
Vind 6 kt från syd
Temperatur 32°C
Fuktighet 71%
Tryck 1013 hPa
Sikt 10 km eller mer
Brutna moln på en höjd av 1400 ft
Få moln på en höjd av 2000 ft, Cumulonimbus.

METAR: DNMM 151300Z 18006KT 9999 BKN014 FEW020CB 32/26 Q1013 NOSIG

Tid: 14:31 (13:31 UTC)

Väderprognos

Denna rapport gjordes för 3 timmar och 51 minuter sedan, klockan 09:40 UTC
Prognos gäller från 15 kl. 12 UTC till 16 kl. 18 UTC
Vind 10 kt från syd/sydväst
Sikt 10 km eller mer
Brutna moln på en höjd av 1300 ft
Få moln på en höjd av 2000 ft, Cumulonimbus.
Sannolikhet 30% :
Temporärt
från 15 kl. 13 UTC till 15 kl. 16 UTC
åska
Blir
från 15 kl. 17 UTC till 15 kl. 19 UTC
Vind 2 kt varierande vindriktning
Få moln på en höjd av 1000 ft

TAF: DNMM 150940Z 1512/1618 20010KT 9999 BKN013 FEW020CB PROB30 TEMPO 1513/1516 TS BECMG 1517/1519 VRB02KT FEW010

Aktuella väderrapporter och prognoser från 4000 flygplatser (METAR- och TAF-rapporter).

De tillgängliga stationerna syns som gula och röda prickar på kartan.

För musen över prickarna för att se namnen på stationerna.

Klicka sedan för att få väderrapporter och prognoser.

För att ändra kartan: Klicka på de gröna knapparna med ett svart kors på för att zooma in; den gröna knappen med ett streck på för att zooma ut; eller på de gröna pilarna för angränsande kartor.


METAR-TAF: